createdAt,value
2022-11-05T00:00:34.212Z,100290.72
2022-11-05T00:03:19.215Z,100294.28
2022-11-05T00:06:10.631Z,100297.66
2022-11-05T00:08:55.984Z,100303.13
2022-11-05T00:11:42.702Z,100302.25
2022-11-05T00:14:27.937Z,100303.13
2022-11-05T00:16:54.329Z,100304.34
2022-11-05T00:19:23.005Z,100306.38
2022-11-05T00:22:08.040Z,100306.59
2022-11-05T00:24:55.636Z,100305.91
2022-11-05T00:27:22.034Z,100311.75
2022-11-05T00:29:53.129Z,100311.75
2022-11-05T00:32:21.838Z,100323.09
2022-11-05T00:34:48.362Z,100316.16
2022-11-05T00:37:14.718Z,100319.69
2022-11-05T00:39:41.640Z,100320.75
2022-11-05T00:42:26.563Z,100334.38
2022-11-05T00:45:01.659Z,100331.81
2022-11-05T00:47:46.917Z,100332.84
2022-11-05T00:50:13.745Z,100332.03
2022-11-05T00:52:55.755Z,100329.28
2022-11-05T00:55:25.198Z,100341.00
2022-11-05T00:57:52.168Z,100346.66
2022-11-05T01:00:23.819Z,100351.91
2022-11-05T01:02:50.477Z,100357.72
2022-11-05T01:05:17.568Z,100357.34
2022-11-05T01:07:44.403Z,100354.81
2022-11-05T01:10:10.894Z,100357.00
2022-11-05T01:12:37.350Z,100362.78
2022-11-05T01:15:04.246Z,100359.41
2022-11-05T01:17:30.732Z,100359.03
2022-11-05T01:20:02.018Z,100361.97
2022-11-05T01:22:33.042Z,100364.31
2022-11-05T01:24:59.524Z,100363.84
2022-11-05T01:27:28.981Z,100365.72
2022-11-05T01:29:55.443Z,100367.22
2022-11-05T01:32:22.013Z,100369.94
2022-11-05T01:34:49.343Z,100373.97
2022-11-05T01:37:15.854Z,100375.47
2022-11-05T01:39:42.276Z,100371.63
2022-11-05T01:42:21.048Z,100380.81
2022-11-05T01:44:56.516Z,100383.16
2022-11-05T01:47:54.496Z,100382.53
2022-11-05T01:50:20.908Z,100387.50
2022-11-05T01:52:49.777Z,100392.72
2022-11-05T01:55:23.945Z,100387.13
2022-11-05T01:57:52.897Z,100395.66
2022-11-05T02:00:19.470Z,100389.00
2022-11-05T02:02:48.713Z,100392.94
2022-11-05T02:05:15.958Z,100391.06
2022-11-05T02:07:48.742Z,100401.38
2022-11-05T02:10:17.946Z,100394.63
2022-11-05T02:12:48.213Z,100405.69
2022-11-05T02:15:18.152Z,100400.91
2022-11-05T02:17:54.979Z,100411.78
2022-11-05T02:20:38.567Z,100404.84
2022-11-05T02:23:22.998Z,100417.97
2022-11-05T02:26:17.367Z,100406.72
2022-11-05T02:29:29.334Z,100414.22
2022-11-05T02:32:30.879Z,100419.31
2022-11-05T02:35:00.208Z,100417.44
2022-11-05T02:37:40.649Z,100422.41
2022-11-05T02:40:52.602Z,100423.41
2022-11-05T02:43:31.114Z,100424.44
2022-11-05T02:46:13.788Z,100428.91
2022-11-05T02:48:45.459Z,100431.25
2022-11-05T02:51:15.240Z,100432.44
2022-11-05T02:54:11.877Z,100431.59
2022-11-05T02:56:44.201Z,100425.81
2022-11-05T02:59:10.656Z,100419.19
2022-11-05T03:01:39.064Z,100422.09
2022-11-05T03:04:09.312Z,100437.72
2022-11-05T03:06:44.418Z,100437.03
2022-11-05T03:09:27.250Z,100441.25
2022-11-05T03:12:32.467Z,100444.81
2022-11-05T03:15:26.151Z,100439.75
2022-11-05T03:17:58.345Z,100442.16
2022-11-05T03:20:58.948Z,100444.72
2022-11-05T03:23:42.589Z,100451.53
2022-11-05T03:26:35.726Z,100456.38
2022-11-05T03:29:24.186Z,100457.72
2022-11-05T03:31:54.222Z,100461.63
2022-11-05T03:34:29.328Z,100458.03
2022-11-05T03:37:02.536Z,100464.72
2022-11-05T03:39:37.627Z,100478.31
2022-11-05T03:42:07.643Z,100476.59
2022-11-05T03:44:38.947Z,100474.94
2022-11-05T03:47:20.983Z,100475.94
2022-11-05T03:49:57.756Z,100476.81
2022-11-05T03:52:28.987Z,100479.03
2022-11-05T03:54:55.887Z,100487.19
2022-11-05T03:57:36.346Z,100488.59
2022-11-05T04:00:07.509Z,100497.09
2022-11-05T04:02:38.450Z,100497.09
2022-11-05T04:05:05.516Z,100502.34
2022-11-05T04:07:50.278Z,100505.06
2022-11-05T04:10:34.870Z,100504.06
2022-11-05T04:13:19.721Z,100507.44
2022-11-05T04:16:05.019Z,100508.28
2022-11-05T04:18:31.534Z,100518.31
2022-11-05T04:21:16.558Z,100513.06
2022-11-05T04:24:18.294Z,100521.22
2022-11-05T04:26:45.314Z,100518.50
2022-11-05T04:29:33.048Z,100521.22
2022-11-05T04:32:01.662Z,100520.75
2022-11-05T04:34:28.081Z,100520.25
2022-11-05T04:36:54.564Z,100517.69
2022-11-05T04:39:21.363Z,100522.28
2022-11-05T04:41:50.929Z,100530.16
2022-11-05T04:44:17.465Z,100524.69
2022-11-05T04:46:43.947Z,100535.59
2022-11-05T04:49:12.570Z,100534.03
2022-11-05T04:51:39.066Z,100537.81
2022-11-05T04:54:05.551Z,100532.53
2022-11-05T04:56:32.063Z,100531.19
2022-11-05T04:58:58.470Z,100538.31
2022-11-05T05:01:25.505Z,100540.34
2022-11-05T05:03:53.876Z,100543.94
2022-11-05T05:06:21.565Z,100544.78
2022-11-05T05:08:49.631Z,100544.78
2022-11-05T05:11:18.763Z,100551.06
2022-11-05T05:13:45.472Z,100548.72
2022-11-05T05:16:24.223Z,100547.16
2022-11-05T05:18:51.489Z,100558.25
2022-11-05T05:21:38.245Z,100563.69
2022-11-05T05:24:24.925Z,100568.63
2022-11-05T05:26:53.642Z,100576.94
2022-11-05T05:29:20.023Z,100576.44
2022-11-05T05:31:48.795Z,100576.78
2022-11-05T05:34:15.326Z,100575.78
2022-11-05T05:36:41.741Z,100576.78
2022-11-05T05:39:10.801Z,100584.25
2022-11-05T05:41:37.304Z,100584.25
2022-11-05T05:44:05.667Z,100590.75
2022-11-05T05:46:36.958Z,100587.31
2022-11-05T05:49:07.869Z,100595.69
2022-11-05T05:51:37.592Z,100597.53
2022-11-05T05:54:04.111Z,100598.56
2022-11-05T05:56:30.646Z,100611.47
2022-11-05T05:58:59.578Z,100604.34
2022-11-05T06:01:28.433Z,100619.97
2022-11-05T06:03:54.877Z,100628.31
2022-11-05T06:06:21.387Z,100623.72
2022-11-05T06:08:50.362Z,100626.59
2022-11-05T06:11:16.826Z,100623.22
2022-11-05T06:13:45.978Z,100630.50
2022-11-05T06:16:12.366Z,100637.31
2022-11-05T06:18:39.063Z,100633.91
2022-11-05T06:21:11.684Z,100640.38
2022-11-05T06:23:40.319Z,100642.06
2022-11-05T06:26:12.457Z,100640.53
2022-11-05T06:28:42.128Z,100657.84
2022-11-05T06:31:10.004Z,100653.44
2022-11-05T06:33:37.081Z,100669.91
2022-11-05T06:36:04.827Z,100665.16
2022-11-05T06:38:36.309Z,100670.41
2022-11-05T06:41:09.842Z,100677.56
2022-11-05T06:43:41.426Z,100681.13
2022-11-05T06:46:08.338Z,100692.31
2022-11-05T06:48:35.122Z,100690.97
2022-11-05T06:51:04.683Z,100693.53
2022-11-05T06:53:31.425Z,100705.09
2022-11-05T06:55:57.859Z,100706.78
2022-11-05T06:58:24.262Z,100704.25
2022-11-05T07:00:53.221Z,100709.88
2022-11-05T07:03:19.618Z,100711.03
2022-11-05T07:05:48.937Z,100715.31
2022-11-05T07:08:16.216Z,100716.47
2022-11-05T07:10:42.739Z,100714.28
2022-11-05T07:13:09.551Z,100728.41
2022-11-05T07:15:37.377Z,100724.81
2022-11-05T07:18:09.445Z,100735.50
2022-11-05T07:20:35.850Z,100738.59
2022-11-05T07:23:05.973Z,100745.72
2022-11-05T07:25:33.761Z,100752.84
2022-11-05T07:28:00.578Z,100759.13
2022-11-05T07:30:27.528Z,100757.47
2022-11-05T07:32:53.986Z,100763.56
2022-11-05T07:35:23.487Z,100759.66
2022-11-05T07:37:51.474Z,100765.78
2022-11-05T07:40:21.884Z,100764.44
2022-11-05T07:42:51.320Z,100762.56
2022-11-05T07:45:18.108Z,100764.94
2022-11-05T07:47:51.675Z,100771.41
2022-11-05T07:50:19.793Z,100777.69
2022-11-05T07:52:47.858Z,100774.97
2022-11-05T07:55:15.751Z,100784.50
2022-11-05T07:57:50.781Z,100789.75
2022-11-05T08:00:22.540Z,100797.91
2022-11-05T08:03:12.057Z,100793.84
2022-11-05T08:05:41.022Z,100795.56
2022-11-05T08:08:09.056Z,100804.88
2022-11-05T08:10:39.064Z,100804.56
2022-11-05T08:13:06.417Z,100812.41
2022-11-05T08:15:33.324Z,100813.91
2022-11-05T08:18:00.983Z,100813.56
2022-11-05T08:20:27.863Z,100816.44
2022-11-05T08:22:54.740Z,100819.00
2022-11-05T08:25:21.400Z,100815.63
2022-11-05T08:27:48.400Z,100819.69
2022-11-05T08:30:14.876Z,100818.00
2022-11-05T08:32:41.304Z,100831.25
2022-11-05T08:35:07.756Z,100836.03
2022-11-05T08:37:36.760Z,100842.16
2022-11-05T08:40:05.993Z,100843.66
2022-11-05T08:42:32.495Z,100838.72
2022-11-05T08:44:58.870Z,100839.94
2022-11-05T08:47:25.431Z,100843.50
2022-11-05T08:49:51.841Z,100836.50
2022-11-05T08:52:18.292Z,100836.19
2022-11-05T08:54:44.783Z,100840.63
2022-11-05T08:57:14.229Z,100851.69
2022-11-05T08:59:40.568Z,100851.69
2022-11-05T09:02:07.160Z,100857.28
2022-11-05T09:04:33.752Z,100846.03
2022-11-05T09:07:00.179Z,100848.88
2022-11-05T09:09:26.637Z,100849.38
2022-11-05T09:12:11.728Z,100855.88
2022-11-05T09:14:39.391Z,100863.53
2022-11-05T09:17:15.684Z,100859.28
2022-11-05T09:19:42.268Z,100860.44
2022-11-05T09:22:08.713Z,100853.13
2022-11-05T09:24:37.405Z,100855.00
2022-11-05T09:27:03.874Z,100865.06
2022-11-05T09:29:30.296Z,100866.09
2022-11-05T09:31:56.889Z,100871.53
2022-11-05T09:34:23.599Z,100869.84
2022-11-05T09:36:49.981Z,100871.00
2022-11-05T09:39:16.349Z,100865.03
2022-11-05T09:41:46.947Z,100873.91
2022-11-05T09:44:18.872Z,100863.00
2022-11-05T09:47:06.073Z,100867.50
2022-11-05T09:49:44.209Z,100874.31
2022-11-05T09:52:16.076Z,100876.00
2022-11-05T09:54:42.595Z,100878.88
2022-11-05T09:57:18.643Z,100883.81
2022-11-05T09:59:47.441Z,100885.31
2022-11-05T10:02:25.516Z,100885.69
2022-11-05T10:04:56.581Z,100878.19
2022-11-05T10:07:28.175Z,100886.19
2022-11-05T10:10:05.972Z,100901.03
2022-11-05T10:12:39.213Z,100902.06
2022-11-05T10:15:20.630Z,100904.63
2022-11-05T10:17:53.513Z,100899.19
2022-11-05T10:20:33.956Z,100901.38
2022-11-05T10:23:18.265Z,100907.50
2022-11-05T10:25:54.771Z,100901.66
2022-11-05T10:28:24.310Z,100910.06
2022-11-05T10:30:59.950Z,100904.78
2022-11-05T10:33:48.077Z,100912.44
2022-11-05T10:36:20.775Z,100911.59
2022-11-05T10:38:47.242Z,100914.69
2022-11-05T10:41:33.495Z,100910.22
2022-11-05T10:44:31.022Z,100911.22
2022-11-05T10:47:42.363Z,100911.22
2022-11-05T10:50:18.566Z,100912.78
2022-11-05T10:53:03.490Z,100918.00
2022-11-05T10:55:34.460Z,100921.34
2022-11-05T10:58:10.528Z,100925.81
2022-11-05T11:00:37.597Z,100918.91
2022-11-05T11:03:25.334Z,100911.22
2022-11-05T11:05:59.992Z,100930.22
2022-11-05T11:08:27.714Z,100926.25
2022-11-05T11:11:06.102Z,100925.75
2022-11-05T11:13:57.865Z,100913.25
2022-11-05T11:16:27.344Z,100920.13
2022-11-05T11:18:54.970Z,100911.56
2022-11-05T11:21:23.263Z,100912.84
2022-11-05T11:23:58.895Z,100917.09
2022-11-05T11:26:33.163Z,100906.25
2022-11-05T11:29:05.996Z,100904.09
2022-11-05T11:31:39.270Z,100907.88
2022-11-05T11:34:43.645Z,100915.75
2022-11-05T11:37:31.452Z,100911.13
2022-11-05T11:40:04.418Z,100908.59
2022-11-05T11:42:34.801Z,100902.78
2022-11-05T11:45:14.869Z,100903.78
2022-11-05T11:47:47.065Z,100903.72
2022-11-05T11:50:33.303Z,100903.13
2022-11-05T11:53:17.857Z,100897.28
2022-11-05T11:56:03.006Z,100907.22
2022-11-05T11:58:41.679Z,100910.75
2022-11-05T12:01:25.117Z,100919.75
2022-11-05T12:03:54.559Z,100908.09
2022-11-05T12:06:26.986Z,100920.31
2022-11-05T12:09:06.821Z,100907.28
2022-11-05T12:11:41.802Z,100919.25
2022-11-05T12:14:10.912Z,100934.50
2022-11-05T12:16:40.188Z,100928.56
2022-11-05T12:19:14.150Z,100906.16
2022-11-05T12:22:02.337Z,100915.13
2022-11-05T12:24:35.592Z,100915.00
2022-11-05T12:27:01.890Z,100914.22
2022-11-05T12:29:35.503Z,100912.09
2022-11-05T12:32:20.090Z,100906.81
2022-11-05T12:34:49.666Z,100911.38
2022-11-05T12:37:23.509Z,100897.81
2022-11-05T12:39:55.636Z,100896.56
2022-11-05T12:42:33.271Z,100898.44
2022-11-05T12:45:02.286Z,100893.31
2022-11-05T12:47:34.763Z,100907.78
2022-11-05T12:50:04.258Z,100893.75
2022-11-05T12:52:33.688Z,100892.72
2022-11-05T12:55:03.388Z,100903.53
2022-11-05T12:57:31.364Z,100903.66
2022-11-05T13:00:03.516Z,100883.47
2022-11-05T13:02:30.075Z,100894.66
2022-11-05T13:04:59.224Z,100886.41
2022-11-05T13:07:30.496Z,100895.31
2022-11-05T13:09:59.438Z,100902.28
2022-11-05T13:12:27.586Z,100906.19
2022-11-05T13:14:59.260Z,100908.72
2022-11-05T13:17:32.826Z,100905.44
2022-11-05T13:20:05.652Z,100904.03
2022-11-05T13:22:35.029Z,100903.97
2022-11-05T13:25:17.150Z,100899.69
2022-11-05T13:27:49.619Z,100913.63
2022-11-05T13:30:26.266Z,100897.53
2022-11-05T13:32:59.572Z,100920.81
2022-11-05T13:35:49.262Z,100904.97
2022-11-05T13:38:39.368Z,100892.81
2022-11-05T13:41:24.593Z,100895.38
2022-11-05T13:43:50.848Z,100887.34
2022-11-05T13:46:25.298Z,100893.66
2022-11-05T13:48:57.440Z,100905.97
2022-11-05T13:51:23.757Z,100910.31
2022-11-05T13:54:08.736Z,100910.03
2022-11-05T13:56:50.066Z,100908.16
2022-11-05T13:59:34.941Z,100904.50
2022-11-05T14:02:04.241Z,100905.91
2022-11-05T14:04:32.679Z,100917.03
2022-11-05T14:07:28.745Z,100913.16
2022-11-05T14:09:56.848Z,100920.56
2022-11-05T14:12:30.500Z,100912.22
2022-11-05T14:15:05.203Z,100912.91
2022-11-05T14:17:33.794Z,100916.34
2022-11-05T14:20:04.038Z,100914.28
2022-11-05T14:22:33.348Z,100905.06
2022-11-05T14:25:00.680Z,100915.63
2022-11-05T14:27:36.120Z,100916.00
2022-11-05T14:30:22.444Z,100923.97
2022-11-05T14:32:50.723Z,100909.97
2022-11-05T14:35:33.654Z,100916.28
2022-11-05T14:38:00.057Z,100919.66
2022-11-05T14:40:36.675Z,100916.72
2022-11-05T14:43:05.664Z,100911.69
2022-11-05T14:45:37.172Z,100916.44
2022-11-05T14:48:08.278Z,100916.31
2022-11-05T14:50:40.226Z,100913.44
2022-11-05T14:53:11.292Z,100918.09
2022-11-05T14:55:45.900Z,100924.78
2022-11-05T14:58:26.772Z,100926.88
2022-11-05T15:00:53.924Z,100925.19
2022-11-05T15:03:38.609Z,100938.53
2022-11-05T15:06:26.073Z,100935.50
2022-11-05T15:08:58.838Z,100943.03
2022-11-05T15:11:38.932Z,100937.25
2022-11-05T15:14:20.048Z,100940.34
2022-11-05T15:16:51.937Z,100942.19
2022-11-05T15:19:22.565Z,100931.50
2022-11-05T15:21:51.586Z,100937.28
2022-11-05T15:24:19.319Z,100939.16
2022-11-05T15:26:58.259Z,100938.97
2022-11-05T15:29:26.749Z,100952.59
2022-11-05T15:31:53.271Z,100956.84
2022-11-05T15:34:24.896Z,100955.97
2022-11-05T15:37:01.976Z,100948.13
2022-11-05T15:39:29.677Z,100948.97
2022-11-05T15:41:58.918Z,100948.09
2022-11-05T15:44:30.228Z,100947.22
2022-11-05T15:47:29.021Z,100958.41
2022-11-05T15:49:56.423Z,100954.13
2022-11-05T15:52:25.834Z,100955.59
2022-11-05T15:55:10.422Z,100954.88
2022-11-05T15:57:40.350Z,100953.97
2022-11-05T16:00:08.390Z,100954.25
2022-11-05T16:02:35.928Z,100952.69
2022-11-05T16:05:09.356Z,100956.53
2022-11-05T16:07:35.834Z,100960.28
2022-11-05T16:10:05.052Z,100962.41
2022-11-05T16:12:35.060Z,100958.63
2022-11-05T16:15:10.633Z,100956.88
2022-11-05T16:17:39.716Z,100963.09
2022-11-05T16:20:38.740Z,100963.56
2022-11-05T16:23:06.979Z,100965.06
2022-11-05T16:25:37.073Z,100968.22
2022-11-05T16:28:08.862Z,100973.41
2022-11-05T16:30:35.285Z,100973.88
2022-11-05T16:33:05.985Z,100977.19
2022-11-05T16:35:32.397Z,100970.38
2022-11-05T16:38:00.877Z,100981.53
2022-11-05T16:40:27.182Z,100973.03
2022-11-05T16:42:53.893Z,100973.31
2022-11-05T16:45:21.676Z,100971.63
2022-11-05T16:47:48.538Z,100981.06
2022-11-05T16:50:23.576Z,100979.50
2022-11-05T16:52:50.210Z,100989.13
2022-11-05T16:55:17.162Z,100993.81
2022-11-05T16:57:47.529Z,100990.28
2022-11-05T17:00:16.053Z,100989.44
2022-11-05T17:02:42.751Z,100988.34
2022-11-05T17:05:20.927Z,100982.31
2022-11-05T17:07:54.867Z,100990.09
2022-11-05T17:10:22.197Z,100996.69
2022-11-05T17:12:49.015Z,101000.69
2022-11-05T17:15:16.930Z,101006.69
2022-11-05T17:17:43.478Z,101011.44
2022-11-05T17:20:14.742Z,101012.00
2022-11-05T17:22:43.287Z,101024.44
2022-11-05T17:25:09.609Z,101026.91
2022-11-05T17:27:35.991Z,101034.47
2022-11-05T17:30:02.341Z,101035.34
2022-11-05T17:32:28.741Z,101043.22
2022-11-05T17:34:55.043Z,101043.94
2022-11-05T17:37:21.347Z,101041.66
2022-11-05T17:39:47.759Z,101038.81
2022-11-05T17:42:14.106Z,101039.97
2022-11-05T17:44:40.381Z,101049.69
2022-11-05T17:47:06.844Z,101044.13
2022-11-05T17:49:33.303Z,101044.56
2022-11-05T17:51:59.718Z,101047.28
2022-11-05T17:54:26.087Z,101057.97
2022-11-05T17:56:52.415Z,101057.09
2022-11-05T17:59:18.779Z,101048.72
2022-11-05T18:01:46.048Z,101055.28
2022-11-05T18:04:15.097Z,101053.00
2022-11-05T18:06:41.736Z,101047.13
2022-11-05T18:09:09.199Z,101043.72
2022-11-05T18:11:36.316Z,101047.72
2022-11-05T18:14:02.839Z,101060.22
2022-11-05T18:16:29.421Z,101061.63
2022-11-05T18:18:55.840Z,101067.34
2022-11-05T18:21:22.145Z,101064.19
2022-11-05T18:23:48.553Z,101057.78
2022-11-05T18:26:15.921Z,101064.47
2022-11-05T18:28:42.816Z,101056.63
2022-11-05T18:31:18.324Z,101052.22
2022-11-05T18:33:47.321Z,101059.06
2022-11-05T18:36:20.821Z,101066.06
2022-11-05T18:38:47.301Z,101062.63
2022-11-05T18:41:13.948Z,101057.69
2022-11-05T18:43:40.480Z,101056.09
2022-11-05T18:46:07.707Z,101060.25
2022-11-05T18:48:34.826Z,101054.56
2022-11-05T18:51:06.399Z,101055.53
2022-11-05T18:53:32.795Z,101047.81
2022-11-05T18:56:06.225Z,101048.84
2022-11-05T18:58:32.684Z,101060.78
2022-11-05T19:01:02.606Z,101055.41
2022-11-05T19:03:33.546Z,101048.69
2022-11-05T19:06:03.589Z,101059.13
2022-11-05T19:08:33.473Z,101060.22
2022-11-05T19:11:00.160Z,101062.22
2022-11-05T19:13:26.612Z,101050.94
2022-11-05T19:15:52.927Z,101052.22
2022-11-05T19:18:19.347Z,101056.78
2022-11-05T19:20:48.205Z,101057.78
2022-11-05T19:23:14.585Z,101052.50
2022-11-05T19:25:40.929Z,101059.63
2022-11-05T19:28:07.279Z,101056.50
2022-11-05T19:30:33.615Z,101064.75
2022-11-05T19:32:59.983Z,101066.47
2022-11-05T19:35:26.315Z,101073.06
2022-11-05T19:37:53.456Z,101073.44
2022-11-05T19:40:22.485Z,101069.63
2022-11-05T19:42:48.763Z,101061.41
2022-11-05T19:45:42.858Z,101055.97
2022-11-05T19:48:01.558Z,101067.94
2022-11-05T19:50:27.881Z,101068.66
2022-11-05T19:52:54.208Z,101062.38
2022-11-05T19:55:20.579Z,101072.34
2022-11-05T19:57:47.066Z,101071.66
2022-11-05T20:00:15.836Z,101075.06
2022-11-05T20:02:43.417Z,101073.16
2022-11-05T20:05:12.327Z,101072.78
2022-11-05T20:07:38.872Z,101075.63
2022-11-05T20:10:05.870Z,101064.22
2022-11-05T20:12:32.642Z,101065.03
2022-11-05T20:14:58.936Z,101071.78
2022-11-05T20:17:25.320Z,101072.50
2022-11-05T20:19:54.018Z,101074.78
2022-11-05T20:22:20.369Z,101064.34
2022-11-05T20:24:46.859Z,101075.50
2022-11-05T20:27:13.174Z,101074.50
2022-11-05T20:29:39.882Z,101066.19
2022-11-05T20:32:08.819Z,101067.34
2022-11-05T20:34:35.260Z,101064.47
2022-11-05T20:37:01.760Z,101068.19
2022-11-05T20:39:30.310Z,101060.38
2022-11-05T20:41:56.853Z,101072.47
2022-11-05T20:44:23.265Z,101073.50
2022-11-05T20:46:51.733Z,101074.19
2022-11-05T20:49:22.563Z,101073.31
2022-11-05T20:51:51.376Z,101072.88
2022-11-05T20:54:17.727Z,101074.47
2022-11-05T20:56:44.039Z,101076.72
2022-11-05T20:59:12.863Z,101072.13
2022-11-05T21:01:39.667Z,101064.34
2022-11-05T21:04:06.531Z,101072.94
2022-11-05T21:06:33.677Z,101068.09
2022-11-05T21:09:00.643Z,101069.88
2022-11-05T21:11:26.979Z,101071.03
2022-11-05T21:13:55.748Z,101073.84
2022-11-05T21:16:22.477Z,101073.00
2022-11-05T21:18:48.920Z,101065.59
2022-11-05T21:21:17.084Z,101076.22
2022-11-05T21:23:43.638Z,101076.06
2022-11-05T21:26:11.812Z,101074.63
2022-11-05T21:28:39.353Z,101073.19
2022-11-05T21:31:06.431Z,101068.34
2022-11-05T21:33:33.481Z,101071.47
2022-11-05T21:36:04.988Z,101067.47
2022-11-05T21:38:31.376Z,101066.91
2022-11-05T21:41:00.082Z,101063.06
2022-11-05T21:43:29.123Z,101066.63
2022-11-05T21:45:55.577Z,101068.97
2022-11-05T21:48:21.916Z,101067.25
2022-11-05T21:51:09.435Z,101066.78
2022-11-05T21:53:54.317Z,101059.53
2022-11-05T21:56:40.888Z,101063.22
2022-11-05T21:59:28.431Z,101063.22
2022-11-05T22:02:01.500Z,101064.59
2022-11-05T22:04:31.688Z,101055.50
2022-11-05T22:06:58.358Z,101048.78
2022-11-05T22:09:25.310Z,101050.13
2022-11-05T22:11:52.061Z,101051.81
2022-11-05T22:14:18.446Z,101062.19
2022-11-05T22:16:44.890Z,101060.34
2022-11-05T22:19:11.228Z,101060.06
2022-11-05T22:21:37.646Z,101061.44
2022-11-05T22:24:04.213Z,101064.03
2022-11-05T22:26:32.707Z,101068.84
2022-11-05T22:28:59.117Z,101065.28
2022-11-05T22:31:35.714Z,101060.84
2022-11-05T22:34:03.008Z,101067.72
2022-11-05T22:36:31.505Z,101069.72
2022-11-05T22:38:57.823Z,101062.19
2022-11-05T22:41:24.106Z,101063.03
2022-11-05T22:43:50.614Z,101064.03
2022-11-05T22:46:21.738Z,101059.59
2022-11-05T22:48:48.744Z,101055.34
2022-11-05T22:51:16.963Z,101056.31
2022-11-05T22:53:46.177Z,101054.63
2022-11-05T22:56:13.831Z,101054.34
2022-11-05T22:58:40.201Z,101050.38
2022-11-05T23:01:07.832Z,101050.50
2022-11-05T23:03:34.290Z,101047.81
2022-11-05T23:06:01.790Z,101047.09
2022-11-05T23:08:47.374Z,101051.66
2022-11-05T23:11:41.505Z,101047.53
2022-11-05T23:14:11.028Z,101049.94
2022-11-05T23:16:55.989Z,101044.97
2022-11-05T23:19:40.868Z,101042.81
2022-11-05T23:22:30.443Z,101050.34
2022-11-05T23:24:56.917Z,101042.03
2022-11-05T23:27:23.862Z,101053.13
2022-11-05T23:29:50.298Z,101044.59
2022-11-05T23:32:25.907Z,101045.00
2022-11-05T23:34:53.376Z,101039.13
2022-11-05T23:37:38.983Z,101031.88
2022-11-05T23:40:07.496Z,101033.84
2022-11-05T23:42:52.624Z,101025.16
2022-11-05T23:45:37.676Z,101026.59
2022-11-05T23:48:25.296Z,101021.00
2022-11-05T23:50:59.926Z,101017.81
2022-11-05T23:53:26.826Z,101025.50
2022-11-05T23:55:53.440Z,101026.31
2022-11-05T23:58:19.854Z,101029.31
